sensor_id;sensor_type;location;lat;lon;timestamp;P1;durP1;ratioP1;P2;durP2;ratioP2
21729;SDS011;11027;51.030;13.812;2022-12-05T00:02:04;17.73;;;11.73;;
21729;SDS011;11027;51.030;13.812;2022-12-05T00:04:29;15.13;;;11.88;;
21729;SDS011;11027;51.030;13.812;2022-12-05T00:06:55;16.52;;;11.35;;
21729;SDS011;11027;51.030;13.812;2022-12-05T00:09:20;16.25;;;12.68;;
21729;SDS011;11027;51.030;13.812;2022-12-05T00:11:45;15.85;;;11.90;;
21729;SDS011;11027;51.030;13.812;2022-12-05T00:14:11;18.85;;;12.85;;
21729;SDS011;11027;51.030;13.812;2022-12-05T00:16:37;15.75;;;12.35;;
21729;SDS011;11027;51.030;13.812;2022-12-05T00:19:05;15.02;;;11.70;;
21729;SDS011;11027;51.030;13.812;2022-12-05T00:21:32;16.25;;;12.02;;
21729;SDS011;11027;51.030;13.812;2022-12-05T00:23:59;17.85;;;12.23;;
21729;SDS011;11027;51.030;13.812;2022-12-05T00:26:25;17.27;;;11.63;;
21729;SDS011;11027;51.030;13.812;2022-12-05T00:28:51;17.35;;;12.00;;
21729;SDS011;11027;51.030;13.812;2022-12-05T00:31:21;16.23;;;11.88;;
21729;SDS011;11027;51.030;13.812;2022-12-05T00:33:47;16.33;;;12.48;;
21729;SDS011;11027;51.030;13.812;2022-12-05T00:36:15;17.05;;;12.68;;
21729;SDS011;11027;51.030;13.812;2022-12-05T00:38:42;15.55;;;11.75;;
21729;SDS011;11027;51.030;13.812;2022-12-05T00:41:10;16.10;;;12.25;;
21729;SDS011;11027;51.030;13.812;2022-12-05T00:43:37;17.17;;;11.95;;
21729;SDS011;11027;51.030;13.812;2022-12-05T00:46:07;15.75;;;12.52;;
21729;SDS011;11027;51.030;13.812;2022-12-05T00:48:35;17.42;;;12.40;;
21729;SDS011;11027;51.030;13.812;2022-12-05T00:51:02;16.33;;;12.30;;
21729;SDS011;11027;51.030;13.812;2022-12-05T00:53:29;16.83;;;12.15;;
21729;SDS011;11027;51.030;13.812;2022-12-05T00:55:55;15.88;;;11.90;;
21729;SDS011;11027;51.030;13.812;2022-12-05T00:58:25;17.50;;;13.18;;
21729;SDS011;11027;51.030;13.812;2022-12-05T01:00:51;17.05;;;12.93;;
21729;SDS011;11027;51.030;13.812;2022-12-05T01:03:16;16.83;;;12.82;;
21729;SDS011;11027;51.030;13.812;2022-12-05T01:05:41;19.05;;;12.82;;
21729;SDS011;11027;51.030;13.812;2022-12-05T01:08:07;15.73;;;12.35;;
21729;SDS011;11027;51.030;13.812;2022-12-05T01:10:32;17.05;;;13.00;;
21729;SDS011;11027;51.030;13.812;2022-12-05T01:12:57;16.05;;;12.43;;
21729;SDS011;11027;51.030;13.812;2022-12-05T01:15:23;18.80;;;13.73;;
21729;SDS011;11027;51.030;13.812;2022-12-05T01:17:48;17.85;;;13.88;;
21729;SDS011;11027;51.030;13.812;2022-12-05T01:20:13;20.65;;;14.57;;
21729;SDS011;11027;51.030;13.812;2022-12-05T01:22:38;19.13;;;14.20;;
21729;SDS011;11027;51.030;13.812;2022-12-05T01:25:04;16.60;;;13.15;;
21729;SDS011;11027;51.030;13.812;2022-12-05T01:27:30;20.10;;;14.60;;
21729;SDS011;11027;51.030;13.812;2022-12-05T01:29:56;18.23;;;12.95;;
21729;SDS011;11027;51.030;13.812;2022-12-05T01:32:21;19.83;;;13.63;;
21729;SDS011;11027;51.030;13.812;2022-12-05T01:34:47;17.45;;;13.25;;
21729;SDS011;11027;51.030;13.812;2022-12-05T01:37:12;18.73;;;12.95;;
21729;SDS011;11027;51.030;13.812;2022-12-05T01:39:37;17.40;;;13.23;;
21729;SDS011;11027;51.030;13.812;2022-12-05T01:42:03;19.92;;;13.43;;
21729;SDS011;11027;51.030;13.812;2022-12-05T01:46:54;17.42;;;12.82;;
21729;SDS011;11027;51.030;13.812;2022-12-05T01:49:27;18.83;;;13.63;;
21729;SDS011;11027;51.030;13.812;2022-12-05T01:52:07;18.73;;;12.57;;
21729;SDS011;11027;51.030;13.812;2022-12-05T01:54:36;17.63;;;12.95;;
21729;SDS011;11027;51.030;13.812;2022-12-05T01:57:03;19.13;;;12.80;;
21729;SDS011;11027;51.030;13.812;2022-12-05T01:59:32;17.70;;;12.73;;
21729;SDS011;11027;51.030;13.812;2022-12-05T02:02:00;18.90;;;13.13;;
21729;SDS011;11027;51.030;13.812;2022-12-05T02:04:26;16.63;;;12.60;;
21729;SDS011;11027;51.030;13.812;2022-12-05T02:06:51;17.25;;;13.38;;
21729;SDS011;11027;51.030;13.812;2022-12-05T02:09:18;17.23;;;13.15;;
21729;SDS011;11027;51.030;13.812;2022-12-05T02:11:51;17.63;;;13.00;;
21729;SDS011;11027;51.030;13.812;2022-12-05T02:17:08;18.63;;;13.43;;
21729;SDS011;11027;51.030;13.812;2022-12-05T02:19:59;17.27;;;13.00;;
21729;SDS011;11027;51.030;13.812;2022-12-05T02:33:32;19.50;;;12.75;;
21729;SDS011;11027;51.030;13.812;2022-12-05T02:43:36;16.38;;;11.85;;
21729;SDS011;11027;51.030;13.812;2022-12-05T02:46:05;16.85;;;11.52;;
21729;SDS011;11027;51.030;13.812;2022-12-05T02:51:01;17.48;;;12.10;;
21729;SDS011;11027;51.030;13.812;2022-12-05T02:53:29;18.50;;;11.73;;
21729;SDS011;11027;51.030;13.812;2022-12-05T02:55:55;17.95;;;12.85;;
21729;SDS011;11027;51.030;13.812;2022-12-05T02:58:24;16.38;;;12.15;;
21729;SDS011;11027;51.030;13.812;2022-12-05T03:00:57;16.88;;;12.07;;
21729;SDS011;11027;51.030;13.812;2022-12-05T03:03:23;16.58;;;12.35;;
21729;SDS011;11027;51.030;13.812;2022-12-05T03:08:31;17.45;;;12.43;;
21729;SDS011;11027;51.030;13.812;2022-12-05T03:11:01;15.68;;;11.93;;
21729;SDS011;11027;51.030;13.812;2022-12-05T03:13:30;14.95;;;11.35;;
21729;SDS011;11027;51.030;13.812;2022-12-05T03:16:04;15.93;;;11.85;;
21729;SDS011;11027;51.030;13.812;2022-12-05T03:18:36;17.70;;;11.18;;
21729;SDS011;11027;51.030;13.812;2022-12-05T03:21:20;16.05;;;11.88;;
21729;SDS011;11027;51.030;13.812;2022-12-05T03:23:48;15.98;;;10.98;;
21729;SDS011;11027;51.030;13.812;2022-12-05T03:26:20;14.15;;;11.07;;
21729;SDS011;11027;51.030;13.812;2022-12-05T03:37:35;17.70;;;11.13;;
21729;SDS011;11027;51.030;13.812;2022-12-05T03:43:05;14.50;;;11.45;;
21729;SDS011;11027;51.030;13.812;2022-12-05T03:45:37;12.48;;;9.75;;
21729;SDS011;11027;51.030;13.812;2022-12-05T03:51:10;14.23;;;10.50;;
21729;SDS011;11027;51.030;13.812;2022-12-05T03:53:40;15.77;;;10.50;;
21729;SDS011;11027;51.030;13.812;2022-12-05T03:56:13;13.48;;;9.93;;
21729;SDS011;11027;51.030;13.812;2022-12-05T04:01:13;17.83;;;10.13;;
21729;SDS011;11027;51.030;13.812;2022-12-05T04:03:44;14.07;;;10.25;;
21729;SDS011;11027;51.030;13.812;2022-12-05T04:06:25;12.55;;;9.57;;
21729;SDS011;11027;51.030;13.812;2022-12-05T04:08:58;12.70;;;9.30;;
21729;SDS011;11027;51.030;13.812;2022-12-05T04:11:29;13.35;;;9.82;;
21729;SDS011;11027;51.030;13.812;2022-12-05T04:16:46;11.80;;;8.98;;
21729;SDS011;11027;51.030;13.812;2022-12-05T04:22:47;11.95;;;8.65;;
21729;SDS011;11027;51.030;13.812;2022-12-05T04:25:14;10.70;;;8.82;;
21729;SDS011;11027;51.030;13.812;2022-12-05T04:39:07;13.80;;;9.20;;
21729;SDS011;11027;51.030;13.812;2022-12-05T04:41:54;11.15;;;8.30;;
21729;SDS011;11027;51.030;13.812;2022-12-05T04:44:26;11.13;;;8.43;;
21729;SDS011;11027;51.030;13.812;2022-12-05T04:46:56;10.77;;;8.32;;
21729;SDS011;11027;51.030;13.812;2022-12-05T04:49:26;10.93;;;8.75;;
21729;SDS011;11027;51.030;13.812;2022-12-05T04:51:54;10.40;;;8.38;;
21729;SDS011;11027;51.030;13.812;2022-12-05T04:54:27;11.70;;;8.40;;
21729;SDS011;11027;51.030;13.812;2022-12-05T04:56:58;9.93;;;7.93;;
21729;SDS011;11027;51.030;13.812;2022-12-05T04:59:29;9.82;;;7.90;;
21729;SDS011;11027;51.030;13.812;2022-12-05T05:01:56;12.75;;;8.80;;
21729;SDS011;11027;51.030;13.812;2022-12-05T05:04:31;9.93;;;8.15;;
21729;SDS011;11027;51.030;13.812;2022-12-05T05:07:04;11.68;;;8.52;;
21729;SDS011;11027;51.030;13.812;2022-12-05T05:09:31;10.97;;;8.23;;
21729;SDS011;11027;51.030;13.812;2022-12-05T05:11:56;11.50;;;8.55;;
21729;SDS011;11027;51.030;13.812;2022-12-05T05:14:21;10.52;;;8.13;;
21729;SDS011;11027;51.030;13.812;2022-12-05T05:16:47;12.65;;;8.40;;
21729;SDS011;11027;51.030;13.812;2022-12-05T05:19:12;11.63;;;7.88;;
21729;SDS011;11027;51.030;13.812;2022-12-05T05:21:38;9.32;;;7.65;;
21729;SDS011;11027;51.030;13.812;2022-12-05T05:24:05;9.98;;;8.10;;
21729;SDS011;11027;51.030;13.812;2022-12-05T05:26:33;10.40;;;7.95;;
21729;SDS011;11027;51.030;13.812;2022-12-05T05:29:00;10.50;;;7.57;;
21729;SDS011;11027;51.030;13.812;2022-12-05T05:31:26;11.43;;;8.35;;
21729;SDS011;11027;51.030;13.812;2022-12-05T05:33:52;12.30;;;7.95;;
21729;SDS011;11027;51.030;13.812;2022-12-05T05:36:20;10.52;;;8.43;;
21729;SDS011;11027;51.030;13.812;2022-12-05T05:38:47;10.98;;;8.13;;
21729;SDS011;11027;51.030;13.812;2022-12-05T05:43:41;12.32;;;7.75;;
21729;SDS011;11027;51.030;13.812;2022-12-05T05:46:07;9.73;;;7.65;;
21729;SDS011;11027;51.030;13.812;2022-12-05T05:48:33;10.98;;;8.13;;
21729;SDS011;11027;51.030;13.812;2022-12-05T05:50:59;9.10;;;7.75;;
21729;SDS011;11027;51.030;13.812;2022-12-05T05:53:25;11.82;;;7.85;;
21729;SDS011;11027;51.030;13.812;2022-12-05T05:55:50;13.70;;;8.00;;
21729;SDS011;11027;51.030;13.812;2022-12-05T05:58:15;11.15;;;8.40;;
21729;SDS011;11027;51.030;13.812;2022-12-05T06:00:41;10.10;;;8.05;;
21729;SDS011;11027;51.030;13.812;2022-12-05T06:03:06;9.40;;;8.32;;
21729;SDS011;11027;51.030;13.812;2022-12-05T06:05:32;10.48;;;8.40;;
21729;SDS011;11027;51.030;13.812;2022-12-05T06:07:57;10.60;;;7.93;;
21729;SDS011;11027;51.030;13.812;2022-12-05T06:10:23;11.23;;;8.18;;
21729;SDS011;11027;51.030;13.812;2022-12-05T06:12:48;11.73;;;8.10;;
21729;SDS011;11027;51.030;13.812;2022-12-05T06:15:13;13.77;;;8.63;;
21729;SDS011;11027;51.030;13.812;2022-12-05T06:17:38;10.18;;;8.00;;
21729;SDS011;11027;51.030;13.812;2022-12-05T06:20:04;10.20;;;8.23;;
21729;SDS011;11027;51.030;13.812;2022-12-05T06:22:30;11.07;;;7.97;;
21729;SDS011;11027;51.030;13.812;2022-12-05T06:24:56;11.77;;;8.13;;
21729;SDS011;11027;51.030;13.812;2022-12-05T06:27:21;11.10;;;8.05;;
21729;SDS011;11027;51.030;13.812;2022-12-05T06:29:47;10.43;;;8.30;;
21729;SDS011;11027;51.030;13.812;2022-12-05T06:32:12;10.45;;;8.40;;
21729;SDS011;11027;51.030;13.812;2022-12-05T06:34:37;10.40;;;8.18;;
21729;SDS011;11027;51.030;13.812;2022-12-05T06:37:03;13.15;;;8.63;;
21729;SDS011;11027;51.030;13.812;2022-12-05T06:39:28;13.32;;;9.38;;
21729;SDS011;11027;51.030;13.812;2022-12-05T06:41:53;11.85;;;9.70;;
21729;SDS011;11027;51.030;13.812;2022-12-05T06:44:19;11.77;;;9.00;;
21729;SDS011;11027;51.030;13.812;2022-12-05T06:46:45;13.15;;;8.50;;
21729;SDS011;11027;51.030;13.812;2022-12-05T06:49:11;11.98;;;9.07;;
21729;SDS011;11027;51.030;13.812;2022-12-05T06:51:37;12.65;;;9.65;;
21729;SDS011;11027;51.030;13.812;2022-12-05T06:54:02;13.02;;;9.43;;
21729;SDS011;11027;51.030;13.812;2022-12-05T06:56:27;12.52;;;8.65;;
21729;SDS011;11027;51.030;13.812;2022-12-05T06:58:53;12.10;;;9.02;;
21729;SDS011;11027;51.030;13.812;2022-12-05T07:01:20;11.52;;;8.80;;
21729;SDS011;11027;51.030;13.812;2022-12-05T07:04:10;9.95;;;8.13;;
21729;SDS011;11027;51.030;13.812;2022-12-05T07:06:38;11.10;;;9.02;;
21729;SDS011;11027;51.030;13.812;2022-12-05T07:09:05;11.68;;;9.15;;
21729;SDS011;11027;51.030;13.812;2022-12-05T07:11:31;10.65;;;8.40;;
21729;SDS011;11027;51.030;13.812;2022-12-05T07:13:56;10.65;;;8.70;;
21729;SDS011;11027;51.030;13.812;2022-12-05T07:16:22;10.23;;;8.32;;
21729;SDS011;11027;51.030;13.812;2022-12-05T07:18:47;14.35;;;8.85;;
21729;SDS011;11027;51.030;13.812;2022-12-05T07:21:13;11.45;;;8.75;;
21729;SDS011;11027;51.030;13.812;2022-12-05T07:23:40;12.55;;;9.38;;
21729;SDS011;11027;51.030;13.812;2022-12-05T07:26:13;13.43;;;8.90;;
21729;SDS011;11027;51.030;13.812;2022-12-05T07:28:40;13.82;;;9.70;;
21729;SDS011;11027;51.030;13.812;2022-12-05T07:31:06;10.95;;;8.80;;
21729;SDS011;11027;51.030;13.812;2022-12-05T07:33:33;11.65;;;8.45;;
21729;SDS011;11027;51.030;13.812;2022-12-05T07:36:03;11.60;;;8.43;;
21729;SDS011;11027;51.030;13.812;2022-12-05T07:38:31;10.80;;;8.65;;
21729;SDS011;11027;51.030;13.812;2022-12-05T07:40:56;11.65;;;8.90;;
21729;SDS011;11027;51.030;13.812;2022-12-05T07:43:21;12.80;;;9.05;;
21729;SDS011;11027;51.030;13.812;2022-12-05T07:45:47;11.57;;;9.05;;
21729;SDS011;11027;51.030;13.812;2022-12-05T07:48:12;12.07;;;8.77;;
21729;SDS011;11027;51.030;13.812;2022-12-05T07:50:38;13.27;;;8.55;;
21729;SDS011;11027;51.030;13.812;2022-12-05T07:53:03;10.50;;;8.75;;
21729;SDS011;11027;51.030;13.812;2022-12-05T07:55:29;11.93;;;9.02;;
21729;SDS011;11027;51.030;13.812;2022-12-05T07:57:55;12.40;;;9.05;;
21729;SDS011;11027;51.030;13.812;2022-12-05T08:00:21;12.48;;;9.23;;
21729;SDS011;11027;51.030;13.812;2022-12-05T08:02:46;11.68;;;8.73;;
21729;SDS011;11027;51.030;13.812;2022-12-05T08:05:12;11.77;;;9.18;;
21729;SDS011;11027;51.030;13.812;2022-12-05T08:07:39;13.18;;;8.85;;
21729;SDS011;11027;51.030;13.812;2022-12-05T08:10:04;11.43;;;8.88;;
21729;SDS011;11027;51.030;13.812;2022-12-05T08:12:30;12.27;;;8.82;;
21729;SDS011;11027;51.030;13.812;2022-12-05T08:14:55;12.60;;;8.75;;
21729;SDS011;11027;51.030;13.812;2022-12-05T08:17:21;13.57;;;9.18;;
21729;SDS011;11027;51.030;13.812;2022-12-05T08:19:46;11.00;;;8.48;;
21729;SDS011;11027;51.030;13.812;2022-12-05T08:22:11;12.75;;;8.93;;
21729;SDS011;11027;51.030;13.812;2022-12-05T08:24:37;11.07;;;8.52;;
21729;SDS011;11027;51.030;13.812;2022-12-05T08:27:03;10.82;;;8.20;;
21729;SDS011;11027;51.030;13.812;2022-12-05T08:29:28;12.10;;;9.35;;
21729;SDS011;11027;51.030;13.812;2022-12-05T08:31:54;11.65;;;9.10;;
21729;SDS011;11027;51.030;13.812;2022-12-05T08:34:19;14.30;;;9.48;;
21729;SDS011;11027;51.030;13.812;2022-12-05T08:36:45;11.13;;;8.80;;
21729;SDS011;11027;51.030;13.812;2022-12-05T08:39:14;16.30;;;9.05;;
21729;SDS011;11027;51.030;13.812;2022-12-05T08:41:45;12.95;;;8.95;;
21729;SDS011;11027;51.030;13.812;2022-12-05T08:44:11;10.45;;;8.07;;
21729;SDS011;11027;51.030;13.812;2022-12-05T08:46:42;13.13;;;8.93;;
21729;SDS011;11027;51.030;13.812;2022-12-05T08:49:09;11.90;;;8.82;;
21729;SDS011;11027;51.030;13.812;2022-12-05T08:51:35;10.80;;;7.97;;
21729;SDS011;11027;51.030;13.812;2022-12-05T08:54:01;10.15;;;8.15;;
21729;SDS011;11027;51.030;13.812;2022-12-05T08:56:27;13.43;;;8.15;;
21729;SDS011;11027;51.030;13.812;2022-12-05T08:58:53;11.15;;;8.07;;
21729;SDS011;11027;51.030;13.812;2022-12-05T09:01:19;9.70;;;7.63;;
21729;SDS011;11027;51.030;13.812;2022-12-05T09:03:46;11.82;;;7.95;;
21729;SDS011;11027;51.030;13.812;2022-12-05T09:06:12;11.02;;;7.97;;
21729;SDS011;11027;51.030;13.812;2022-12-05T09:08:40;12.88;;;8.15;;
21729;SDS011;11027;51.030;13.812;2022-12-05T09:11:16;11.95;;;8.38;;
21729;SDS011;11027;51.030;13.812;2022-12-05T09:13:44;11.18;;;7.82;;
21729;SDS011;11027;51.030;13.812;2022-12-05T09:16:11;12.95;;;8.07;;
21729;SDS011;11027;51.030;13.812;2022-12-05T09:18:41;10.88;;;7.93;;
21729;SDS011;11027;51.030;13.812;2022-12-05T09:21:12;11.85;;;8.80;;
21729;SDS011;11027;51.030;13.812;2022-12-05T09:23:39;12.25;;;8.85;;
21729;SDS011;11027;51.030;13.812;2022-12-05T09:26:05;13.48;;;7.70;;
21729;SDS011;11027;51.030;13.812;2022-12-05T09:28:32;9.90;;;7.82;;
21729;SDS011;11027;51.030;13.812;2022-12-05T09:31:02;10.40;;;8.15;;
21729;SDS011;11027;51.030;13.812;2022-12-05T09:33:29;11.15;;;8.80;;
21729;SDS011;11027;51.030;13.812;2022-12-05T09:35:56;13.70;;;8.13;;
21729;SDS011;11027;51.030;13.812;2022-12-05T09:38:22;11.88;;;8.43;;
21729;SDS011;11027;51.030;13.812;2022-12-05T09:40:59;13.40;;;8.43;;
21729;SDS011;11027;51.030;13.812;2022-12-05T09:43:44;13.23;;;8.60;;
21729;SDS011;11027;51.030;13.812;2022-12-05T09:47:11;11.82;;;8.52;;
21729;SDS011;11027;51.030;13.812;2022-12-05T09:49:09;11.68;;;8.77;;
21729;SDS011;11027;51.030;13.812;2022-12-05T09:51:36;12.65;;;9.15;;
21729;SDS011;11027;51.030;13.812;2022-12-05T09:54:07;13.50;;;9.50;;
21729;SDS011;11027;51.030;13.812;2022-12-05T09:56:33;12.80;;;8.55;;
21729;SDS011;11027;51.030;13.812;2022-12-05T09:58:59;14.77;;;8.98;;
21729;SDS011;11027;51.030;13.812;2022-12-05T10:01:40;15.77;;;8.85;;
21729;SDS011;11027;51.030;13.812;2022-12-05T10:17:56;15.98;;;8.90;;
21729;SDS011;11027;51.030;13.812;2022-12-05T10:20:46;14.63;;;9.20;;
21729;SDS011;11027;51.030;13.812;2022-12-05T10:23:52;13.13;;;9.43;;
21729;SDS011;11027;51.030;13.812;2022-12-05T10:26:18;14.43;;;9.90;;
21729;SDS011;11027;51.030;13.812;2022-12-05T10:32:01;13.20;;;9.95;;
21729;SDS011;11027;51.030;13.812;2022-12-05T10:34:33;14.75;;;9.85;;
21729;SDS011;11027;51.030;13.812;2022-12-05T10:37:10;12.55;;;9.65;;
21729;SDS011;11027;51.030;13.812;2022-12-05T10:39:40;15.10;;;9.88;;
21729;SDS011;11027;51.030;13.812;2022-12-05T10:42:08;12.27;;;9.68;;
21729;SDS011;11027;51.030;13.812;2022-12-05T10:44:39;13.82;;;9.93;;
21729;SDS011;11027;51.030;13.812;2022-12-05T10:47:04;15.88;;;11.43;;
21729;SDS011;11027;51.030;13.812;2022-12-05T10:49:30;20.33;;;14.27;;
21729;SDS011;11027;51.030;13.812;2022-12-05T10:51:58;22.73;;;16.55;;
21729;SDS011;11027;51.030;13.812;2022-12-05T10:54:25;16.13;;;10.75;;
21729;SDS011;11027;51.030;13.812;2022-12-05T10:56:54;16.30;;;9.95;;
21729;SDS011;11027;51.030;13.812;2022-12-05T10:59:20;15.60;;;9.25;;
21729;SDS011;11027;51.030;13.812;2022-12-05T11:01:51;12.23;;;9.35;;
21729;SDS011;11027;51.030;13.812;2022-12-05T11:04:22;12.90;;;9.60;;
21729;SDS011;11027;51.030;13.812;2022-12-05T11:06:51;16.00;;;9.98;;
21729;SDS011;11027;51.030;13.812;2022-12-05T11:09:25;17.02;;;10.20;;
21729;SDS011;11027;51.030;13.812;2022-12-05T11:14:30;16.67;;;9.75;;
21729;SDS011;11027;51.030;13.812;2022-12-05T11:16:58;12.85;;;9.38;;
21729;SDS011;11027;51.030;13.812;2022-12-05T11:21:55;13.90;;;9.85;;
21729;SDS011;11027;51.030;13.812;2022-12-05T11:24:33;11.60;;;9.43;;
21729;SDS011;11027;51.030;13.812;2022-12-05T11:27:18;14.50;;;9.55;;
21729;SDS011;11027;51.030;13.812;2022-12-05T11:29:59;15.65;;;9.90;;
21729;SDS011;11027;51.030;13.812;2022-12-05T11:32:38;14.20;;;10.57;;
21729;SDS011;11027;51.030;13.812;2022-12-05T11:37:40;15.60;;;10.90;;
21729;SDS011;11027;51.030;13.812;2022-12-05T11:40:11;13.75;;;10.65;;
21729;SDS011;11027;51.030;13.812;2022-12-05T11:42:51;15.43;;;11.63;;
21729;SDS011;11027;51.030;13.812;2022-12-05T11:51:07;18.00;;;10.63;;
21729;SDS011;11027;51.030;13.812;2022-12-05T12:16:19;12.85;;;9.90;;
21729;SDS011;11027;51.030;13.812;2022-12-05T12:21:58;20.02;;;10.23;;
21729;SDS011;11027;51.030;13.812;2022-12-05T12:30:10;14.48;;;9.82;;
21729;SDS011;11027;51.030;13.812;2022-12-05T12:46:51;13.07;;;8.35;;
21729;SDS011;11027;51.030;13.812;2022-12-05T12:52:12;12.23;;;8.88;;
21729;SDS011;11027;51.030;13.812;2022-12-05T12:54:52;13.55;;;8.95;;
21729;SDS011;11027;51.030;13.812;2022-12-05T13:03:04;12.63;;;8.52;;
21729;SDS011;11027;51.030;13.812;2022-12-05T13:05:37;17.33;;;8.55;;
21729;SDS011;11027;51.030;13.812;2022-12-05T13:10:50;11.70;;;8.70;;
21729;SDS011;11027;51.030;13.812;2022-12-05T13:13:26;13.82;;;8.88;;
21729;SDS011;11027;51.030;13.812;2022-12-05T13:15:58;13.40;;;9.23;;
21729;SDS011;11027;51.030;13.812;2022-12-05T13:18:25;12.77;;;8.57;;
21729;SDS011;11027;51.030;13.812;2022-12-05T13:20:58;12.90;;;8.57;;
21729;SDS011;11027;51.030;13.812;2022-12-05T13:23:31;12.07;;;7.95;;
21729;SDS011;11027;51.030;13.812;2022-12-05T13:26:00;13.70;;;8.45;;
21729;SDS011;11027;51.030;13.812;2022-12-05T13:28:37;12.25;;;8.20;;
21729;SDS011;11027;51.030;13.812;2022-12-05T13:31:11;10.77;;;7.82;;
21729;SDS011;11027;51.030;13.812;2022-12-05T13:33:44;12.52;;;8.20;;
21729;SDS011;11027;51.030;13.812;2022-12-05T13:36:12;11.63;;;8.10;;
21729;SDS011;11027;51.030;13.812;2022-12-05T13:39:05;11.95;;;7.63;;
21729;SDS011;11027;51.030;13.812;2022-12-05T13:41:58;11.05;;;7.68;;
21729;SDS011;11027;51.030;13.812;2022-12-05T13:47:26;12.40;;;7.93;;
21729;SDS011;11027;51.030;13.812;2022-12-05T13:49:56;10.73;;;8.10;;
21729;SDS011;11027;51.030;13.812;2022-12-05T13:52:31;12.77;;;8.82;;
21729;SDS011;11027;51.030;13.812;2022-12-05T13:55:16;13.32;;;8.88;;
21729;SDS011;11027;51.030;13.812;2022-12-05T13:57:55;13.55;;;8.45;;
21729;SDS011;11027;51.030;13.812;2022-12-05T14:02:52;11.98;;;9.20;;
21729;SDS011;11027;51.030;13.812;2022-12-05T14:15:24;13.30;;;9.55;;
21729;SDS011;11027;51.030;13.812;2022-12-05T14:18:00;12.82;;;9.48;;
21729;SDS011;11027;51.030;13.812;2022-12-05T14:20:48;13.55;;;9.13;;
21729;SDS011;11027;51.030;13.812;2022-12-05T14:29:02;8.55;;;6.60;;
21729;SDS011;11027;51.030;13.812;2022-12-05T14:34:48;7.70;;;6.30;;
21729;SDS011;11027;51.030;13.812;2022-12-05T14:37:23;8.38;;;6.03;;
21729;SDS011;11027;51.030;13.812;2022-12-05T14:39:52;7.22;;;6.05;;
21729;SDS011;11027;51.030;13.812;2022-12-05T14:47:54;7.07;;;5.50;;
21729;SDS011;11027;51.030;13.812;2022-12-05T14:55:49;6.57;;;5.03;;
21729;SDS011;11027;51.030;13.812;2022-12-05T14:58:36;7.78;;;5.40;;
21729;SDS011;11027;51.030;13.812;2022-12-05T15:01:11;6.70;;;5.38;;
21729;SDS011;11027;51.030;13.812;2022-12-05T15:06:24;7.03;;;4.80;;
21729;SDS011;11027;51.030;13.812;2022-12-05T15:08:51;7.35;;;5.32;;
21729;SDS011;11027;51.030;13.812;2022-12-05T15:11:20;6.70;;;5.47;;
21729;SDS011;11027;51.030;13.812;2022-12-05T15:13:56;7.03;;;5.22;;
21729;SDS011;11027;51.030;13.812;2022-12-05T15:16:43;7.72;;;6.00;;
21729;SDS011;11027;51.030;13.812;2022-12-05T15:19:14;8.40;;;5.68;;
21729;SDS011;11027;51.030;13.812;2022-12-05T15:21:46;10.23;;;6.97;;
21729;SDS011;11027;51.030;13.812;2022-12-05T15:24:18;10.95;;;7.53;;
21729;SDS011;11027;51.030;13.812;2022-12-05T15:26:51;12.77;;;9.02;;
21729;SDS011;11027;51.030;13.812;2022-12-05T15:31:45;10.00;;;7.43;;
21729;SDS011;11027;51.030;13.812;2022-12-05T15:36:53;10.05;;;6.40;;
21729;SDS011;11027;51.030;13.812;2022-12-05T15:39:23;10.93;;;7.82;;
21729;SDS011;11027;51.030;13.812;2022-12-05T15:41:53;11.55;;;8.35;;
21729;SDS011;11027;51.030;13.812;2022-12-05T15:44:20;9.38;;;6.88;;
21729;SDS011;11027;51.030;13.812;2022-12-05T15:46:50;9.45;;;7.10;;
21729;SDS011;11027;51.030;13.812;2022-12-05T15:49:24;9.73;;;6.90;;
21729;SDS011;11027;51.030;13.812;2022-12-05T15:51:52;10.25;;;7.13;;
21729;SDS011;11027;51.030;13.812;2022-12-05T15:54:24;9.30;;;7.18;;
21729;SDS011;11027;51.030;13.812;2022-12-05T15:56:57;10.93;;;8.00;;
21729;SDS011;11027;51.030;13.812;2022-12-05T16:02:03;20.35;;;14.65;;
21729;SDS011;11027;51.030;13.812;2022-12-05T16:04:44;11.40;;;8.55;;
21729;SDS011;11027;51.030;13.812;2022-12-05T16:07:13;15.05;;;8.32;;
21729;SDS011;11027;51.030;13.812;2022-12-05T16:09:40;11.07;;;8.48;;
21729;SDS011;11027;51.030;13.812;2022-12-05T16:15:03;11.95;;;8.00;;
21729;SDS011;11027;51.030;13.812;2022-12-05T16:17:39;11.10;;;8.15;;
21729;SDS011;11027;51.030;13.812;2022-12-05T16:22:43;10.27;;;8.43;;
21729;SDS011;11027;51.030;13.812;2022-12-05T16:25:12;11.77;;;8.52;;
21729;SDS011;11027;51.030;13.812;2022-12-05T16:27:40;11.60;;;8.43;;
21729;SDS011;11027;51.030;13.812;2022-12-05T16:30:18;14.18;;;8.45;;
21729;SDS011;11027;51.030;13.812;2022-12-05T16:32:44;12.02;;;8.35;;
21729;SDS011;11027;51.030;13.812;2022-12-05T16:35:25;10.23;;;7.90;;
21729;SDS011;11027;51.030;13.812;2022-12-05T16:43:26;12.88;;;9.25;;
21729;SDS011;11027;51.030;13.812;2022-12-05T16:48:37;10.73;;;8.65;;
21729;SDS011;11027;51.030;13.812;2022-12-05T16:53:35;11.02;;;8.05;;
21729;SDS011;11027;51.030;13.812;2022-12-05T16:56:01;12.38;;;8.32;;
21729;SDS011;11027;51.030;13.812;2022-12-05T16:58:28;11.00;;;8.07;;
21729;SDS011;11027;51.030;13.812;2022-12-05T17:00:58;12.35;;;8.48;;
21729;SDS011;11027;51.030;13.812;2022-12-05T17:03:26;11.77;;;8.60;;
21729;SDS011;11027;51.030;13.812;2022-12-05T17:05:52;12.18;;;8.25;;
21729;SDS011;11027;51.030;13.812;2022-12-05T17:08:18;12.77;;;9.05;;
21729;SDS011;11027;51.030;13.812;2022-12-05T17:10:43;12.32;;;8.25;;
21729;SDS011;11027;51.030;13.812;2022-12-05T17:13:10;11.65;;;8.05;;
21729;SDS011;11027;51.030;13.812;2022-12-05T17:15:39;10.10;;;7.68;;
21729;SDS011;11027;51.030;13.812;2022-12-05T17:18:14;10.27;;;7.53;;
21729;SDS011;11027;51.030;13.812;2022-12-05T17:20:42;12.15;;;7.97;;
21729;SDS011;11027;51.030;13.812;2022-12-05T17:23:10;11.88;;;8.48;;
21729;SDS011;11027;51.030;13.812;2022-12-05T17:25:40;11.38;;;8.65;;
21729;SDS011;11027;51.030;13.812;2022-12-05T17:28:08;11.23;;;8.00;;
21729;SDS011;11027;51.030;13.812;2022-12-05T17:30:34;11.60;;;7.95;;
21729;SDS011;11027;51.030;13.812;2022-12-05T17:32:59;12.35;;;7.93;;
21729;SDS011;11027;51.030;13.812;2022-12-05T17:35:26;10.25;;;7.45;;
21729;SDS011;11027;51.030;13.812;2022-12-05T17:37:52;14.10;;;8.45;;
21729;SDS011;11027;51.030;13.812;2022-12-05T17:40:18;12.32;;;8.98;;
21729;SDS011;11027;51.030;13.812;2022-12-05T17:42:43;12.20;;;8.20;;
21729;SDS011;11027;51.030;13.812;2022-12-05T17:45:12;15.60;;;8.05;;
21729;SDS011;11027;51.030;13.812;2022-12-05T17:47:38;12.90;;;9.30;;
21729;SDS011;11027;51.030;13.812;2022-12-05T17:50:04;15.80;;;9.90;;
21729;SDS011;11027;51.030;13.812;2022-12-05T17:52:31;12.40;;;9.45;;
21729;SDS011;11027;51.030;13.812;2022-12-05T17:54:57;12.80;;;8.93;;
21729;SDS011;11027;51.030;13.812;2022-12-05T17:57:23;14.02;;;9.50;;
21729;SDS011;11027;51.030;13.812;2022-12-05T17:59:48;14.50;;;9.23;;
21729;SDS011;11027;51.030;13.812;2022-12-05T18:02:13;12.70;;;8.70;;
21729;SDS011;11027;51.030;13.812;2022-12-05T18:04:41;12.25;;;9.07;;
21729;SDS011;11027;51.030;13.812;2022-12-05T18:07:06;14.88;;;9.85;;